Laida — EAVE — position and weather

sailwx.info

Track history (hours):
 
Tides and Currents Weather Stations Pressure Air Temp Water Temp Dewpoint Dewpoint Depression Visibility Wind Speed Wind Dir Waves Ship Positions

Laida

Last reported at 2016-May-30 06:33 UTC. Time now 2016-May-30 14:36 UTC.
Position N 37°00' E 013°17'.

Length 100 m; draft 5.3 m.

Type: Cargo ship. MMSI: 224509000.

Date/timePositionNaut miles runAvg speedWind from/ knotsBaromVisibWave heightAir tempDewpointWater temp
2016-May-30 06:33N 37°00' E 013°17'1010.2
2016-May-30 05:32N 36°55' E 013°29'1010.6
2016-May-30 04:34N 36°50' E 013°40'1110.6
2016-May-30 03:33N 36°45' E 013°52'1010.5
2016-May-30 02:33N 36°40' E 014°03'1110.6
2016-May-30 01:33N 36°35' E 014°15'1110.9
2016-May-30 00:33N 36°30' E 014°27'1111.1
2016-May-29 23:33N 36°26' E 014°40'1611.4
2016-May-29 22:11N 36°20' E 014°58'710.7
2016-May-29 21:33N 36°20' E 015°06'40011.3
2016-May-28 10:08N 36°32' E 023°23'711.5
2016-May-28 09:33N 36°37' E 023°29'1010.4
2016-May-28 08:33N 36°44' E 023°39'7011.7
2016-May-28 02:33N 37°41' E 024°30'1211.7
2016-May-28 01:33N 37°52' E 024°35'  
2016-May-23 04:23N 37°12' E 024°05'45010.2
2016-May-21 08:20N 36°27' E 014°45'1012.1
2016-May-21 07:33N 36°30' E 014°34'1212.0
2016-May-21 06:34N 36°35' E 014°20'1211.7
2016-May-21 05:32N 36°40' E 014°07'1211.8
2016-May-21 04:33N 36°46' E 013°54'1211.8
2016-May-21 03:33N 36°51' E 013°41'  
Track history (hours):
 
Tides and Currents Weather Stations Pressure Air Temp Water Temp Dewpoint Dewpoint Depression Visibility Wind Speed Wind Dir Waves Ship Positions

Laida

Last reported at 2016-May-30 06:33 UTC. Time now 2016-May-30 14:36 UTC.
Position N 37°00' E 013°17'.

Length 100 m; draft 5.3 m.

Type: Cargo ship. MMSI: 224509000.

Date/timePositionNaut miles runAvg speedWind from/ knotsBaromVisibWave heightAir tempDewpointWater temp
2016-May-30 06:33N 37°00' E 013°17'1010.2
2016-May-30 05:32N 36°55' E 013°29'1010.6
2016-May-30 04:34N 36°50' E 013°40'1110.6
2016-May-30 03:33N 36°45' E 013°52'1010.5
2016-May-30 02:33N 36°40' E 014°03'1110.6
2016-May-30 01:33N 36°35' E 014°15'1110.9
2016-May-30 00:33N 36°30' E 014°27'1111.1
2016-May-29 23:33N 36°26' E 014°40'1611.4
2016-May-29 22:11N 36°20' E 014°58'710.7
2016-May-29 21:33N 36°20' E 015°06'40011.3
2016-May-28 10:08N 36°32' E 023°23'711.5
2016-May-28 09:33N 36°37' E 023°29'1010.4
2016-May-28 08:33N 36°44' E 023°39'7011.7
2016-May-28 02:33N 37°41' E 024°30'1211.7
2016-May-28 01:33N 37°52' E 024°35'  
2016-May-23 04:23N 37°12' E 024°05'45010.2
2016-May-21 08:20N 36°27' E 014°45'1012.1
2016-May-21 07:33N 36°30' E 014°34'1212.0
2016-May-21 06:34N 36°35' E 014°20'1211.7
2016-May-21 05:32N 36°40' E 014°07'1211.8
2016-May-21 04:33N 36°46' E 013°54'1211.8
2016-May-21 03:33N 36°51' E 013°41'  

Dump ship's entire track history